Terminal Aerodrome Forecast
Issued by NWS Blacksburg, VA

Home | Current Version | Previous Version | Text Only | Print | Product List | Glossary On
Versions: 1 2 3 4 5 6 7 8 9 10 11 12 13 14 15 16 17
000
FTUS41 KRNK 181138
TAFROA
TAF
KROA 181138Z 1812/1912 19004KT P6SM BKN200
     FM181900 20012G18KT P6SM SCT070 BKN150
     FM190000 20010KT P6SM VCSH SCT020 OVC030
     FM190200 20010KT P6SM -SHRA BKN035
     FM190500 24010G21KT P6SM -SHRA OVC025
     FM190700 28013G23KT P6SM VCSH SCT025 OVC070=

USA.gov is the U.S. government's official web portal to all federal, state and local government web resources and services.